createdAt,value
2019-02-05T00:00:17.277Z,102221.72
2019-02-05T00:02:45.741Z,102219.23
2019-02-05T00:05:14.372Z,102219.23
2019-02-05T00:07:42.878Z,102216.78
2019-02-05T00:10:11.418Z,102214.30
2019-02-05T00:12:40.178Z,102208.89
2019-02-05T00:15:08.758Z,102208.89
2019-02-05T00:17:37.258Z,102199.03
2019-02-05T00:20:06.929Z,102191.73
2019-02-05T00:22:35.407Z,102198.14
2019-02-05T00:25:04.970Z,102198.14
2019-02-05T00:27:33.418Z,102199.42
2019-02-05T00:30:01.911Z,102192.13
2019-02-05T00:32:30.374Z,102192.13
2019-02-05T00:34:59.194Z,102199.42
2019-02-05T00:37:27.674Z,102199.42
2019-02-05T00:39:56.131Z,102193.61
2019-02-05T00:42:24.580Z,102196.17
2019-02-05T00:44:53.071Z,102191.16
2019-02-05T00:47:21.526Z,102191.16
2019-02-05T00:49:49.984Z,102188.59
2019-02-05T00:52:18.562Z,102181.78
2019-02-05T00:54:47.015Z,102181.27
2019-02-05T00:57:15.545Z,102181.27
2019-02-05T00:59:44.023Z,102188.97
2019-02-05T01:02:12.479Z,102178.10
2019-02-05T01:04:40.924Z,102188.08
2019-02-05T01:07:09.851Z,102188.08
2019-02-05T01:09:38.301Z,102189.77
2019-02-05T01:12:06.820Z,102178.63
2019-02-05T01:14:36.351Z,102181.19
2019-02-05T01:17:04.893Z,102173.09
2019-02-05T01:19:33.339Z,102177.82
2019-02-05T01:22:01.812Z,102177.82
2019-02-05T01:24:30.248Z,102167.77
2019-02-05T01:26:58.705Z,102167.77
2019-02-05T01:29:27.207Z,102171.12
2019-02-05T01:31:55.663Z,102171.12
2019-02-05T01:34:24.115Z,102162.03
2019-02-05T01:36:52.617Z,102165.70
2019-02-05T01:39:21.067Z,102156.61
2019-02-05T01:41:49.524Z,102166.70
2019-02-05T01:44:18.025Z,102166.70
2019-02-05T01:46:46.485Z,102165.50
2019-02-05T01:49:14.935Z,102159.08
2019-02-05T01:51:43.413Z,102159.08
2019-02-05T01:54:13.851Z,102156.52
2019-02-05T01:56:42.299Z,102163.13
2019-02-05T01:59:10.795Z,102163.13
2019-02-05T02:01:39.318Z,102153.66
2019-02-05T02:04:07.848Z,102153.47
2019-02-05T02:06:36.440Z,102168.26
2019-02-05T02:09:05.929Z,102149.51
2019-02-05T02:11:34.391Z,102149.51
2019-02-05T02:14:02.886Z,102155.04
2019-02-05T02:16:33.079Z,102173.91
2019-02-05T02:19:01.616Z,102156.92
2019-02-05T02:21:30.128Z,102171.63
2019-02-05T02:23:58.593Z,102172.11
2019-02-05T02:26:27.058Z,102172.11
2019-02-05T02:28:55.541Z,102164.82
2019-02-05T02:31:24.075Z,102164.82
2019-02-05T02:33:52.529Z,102168.75
2019-02-05T02:36:21.028Z,102170.62
2019-02-05T02:38:49.492Z,102170.14
2019-02-05T02:41:18.331Z,102170.91
2019-02-05T02:43:46.834Z,102170.91
2019-02-05T02:46:15.460Z,102160.74
2019-02-05T02:48:44.003Z,102169.55
2019-02-05T02:51:12.559Z,102166.59
2019-02-05T02:53:41.010Z,102166.59
2019-02-05T02:56:09.464Z,102168.67
2019-02-05T02:58:37.946Z,102166.39
2019-02-05T03:01:06.479Z,102166.39
2019-02-05T03:03:34.926Z,102156.02
2019-02-05T03:06:03.417Z,102150.28
2019-02-05T03:08:32.044Z,102155.63
2019-02-05T03:11:00.510Z,102156.67
2019-02-05T03:13:29.014Z,102156.67
2019-02-05T03:15:57.473Z,102148.19
2019-02-05T03:18:26.953Z,102153.52
2019-02-05T03:20:55.469Z,102153.52
2019-02-05T03:23:23.936Z,102148.39
2019-02-05T03:25:52.376Z,102150.95
2019-02-05T03:28:20.873Z,102137.22
2019-02-05T03:30:49.365Z,102137.22
2019-02-05T03:33:19.529Z,102135.14
2019-02-05T03:35:48.004Z,102138.51
2019-02-05T03:38:16.468Z,102141.75
2019-02-05T03:41:00.014Z,102140.36
2019-02-05T03:43:28.553Z,102140.96
2019-02-05T03:45:58.251Z,102138.16
2019-02-05T03:48:27.589Z,102131.76
2019-02-05T03:51:14.411Z,102131.76
2019-02-05T03:54:05.669Z,102142.30
2019-02-05T03:56:56.759Z,102128.67
2019-02-05T03:59:58.384Z,102138.65
2019-02-05T04:02:51.271Z,102127.08
2019-02-05T04:05:32.491Z,102123.27
2019-02-05T04:08:36.272Z,102123.27
2019-02-05T04:11:28.701Z,102118.19
2019-02-05T04:14:00.328Z,102114.66
2019-02-05T04:16:56.083Z,102114.66
2019-02-05T04:19:50.618Z,102123.12
2019-02-05T04:22:34.372Z,102135.25
2019-02-05T04:25:38.010Z,102126.68
2019-02-05T04:28:21.614Z,102130.52
2019-02-05T04:31:04.825Z,102130.80
2019-02-05T04:34:01.593Z,102124.68
2019-02-05T04:36:38.737Z,102124.68
2019-02-05T04:39:13.400Z,102125.59
2019-02-05T04:41:47.940Z,102125.59
2019-02-05T04:44:25.611Z,102113.15
2019-02-05T04:47:21.142Z,102116.99
2019-02-05T04:49:52.835Z,102109.91
2019-02-05T04:52:40.693Z,102116.70
2019-02-05T04:55:21.687Z,102112.87
2019-02-05T04:57:59.123Z,102112.87
2019-02-05T05:00:57.181Z,102114.43
2019-02-05T05:03:28.820Z,102110.10
2019-02-05T05:06:00.452Z,102113.75
2019-02-05T05:08:44.129Z,102111.70
2019-02-05T05:11:13.226Z,102111.70
2019-02-05T05:13:41.701Z,102107.94
2019-02-05T05:16:10.210Z,102112.90
2019-02-05T05:18:38.664Z,102112.90
2019-02-05T05:21:08.257Z,102119.50
2019-02-05T05:23:36.822Z,102114.09
2019-02-05T05:26:05.347Z,102124.47
2019-02-05T05:28:34.153Z,102115.58
2019-02-05T05:31:02.660Z,102123.47
2019-02-05T05:33:31.127Z,102120.62
2019-02-05T05:35:59.588Z,102116.77
2019-02-05T05:38:28.088Z,102119.94
2019-02-05T05:40:56.551Z,102113.12
2019-02-05T05:43:25.018Z,102113.12
2019-02-05T05:45:53.886Z,102123.89
2019-02-05T05:48:22.437Z,102123.49
2019-02-05T05:50:50.901Z,102127.94
2019-02-05T05:53:19.421Z,102122.81
2019-02-05T05:55:47.890Z,102122.01
2019-02-05T05:58:22.904Z,102122.01
2019-02-05T06:00:46.579Z,102124.20
2019-02-05T06:03:15.326Z,102122.92
2019-02-05T06:05:43.793Z,102126.85
2019-02-05T06:08:12.312Z,102117.68
2019-02-05T06:10:40.780Z,102117.68
2019-02-05T06:13:09.237Z,102113.23
2019-02-05T06:15:37.740Z,102120.65
2019-02-05T06:18:06.264Z,102117.97
2019-02-05T06:20:35.138Z,102121.41
2019-02-05T06:23:04.797Z,102136.62
2019-02-05T06:25:33.260Z,102136.62
2019-02-05T06:28:01.723Z,102132.58
2019-02-05T06:30:30.227Z,102132.58
2019-02-05T06:32:58.695Z,102166.31
2019-02-05T06:35:27.162Z,102164.63
2019-02-05T06:37:55.821Z,102156.34
2019-02-05T06:40:24.300Z,102156.34
2019-02-05T06:42:52.758Z,102158.82
2019-02-05T06:45:21.304Z,102165.23
2019-02-05T06:47:49.846Z,102165.23
2019-02-05T06:50:18.310Z,102170.88
2019-02-05T06:52:46.815Z,102173.04
2019-02-05T06:55:15.753Z,102172.23
2019-02-05T06:57:44.221Z,102175.20
2019-02-05T07:00:15.897Z,102189.51
2019-02-05T07:02:44.447Z,102193.67
2019-02-05T07:05:12.974Z,102193.67
2019-02-05T07:07:41.484Z,102197.52
2019-02-05T07:10:19.027Z,102197.52
2019-02-05T07:12:47.536Z,102199.08
2019-02-05T07:15:16.175Z,102202.77
2019-02-05T07:17:49.770Z,102199.31
2019-02-05T07:20:16.313Z,102199.31
2019-02-05T07:22:45.120Z,102198.83
2019-02-05T07:25:21.590Z,102208.00
2019-02-05T07:27:50.426Z,102201.70
2019-02-05T07:30:24.244Z,102208.80
2019-02-05T07:32:52.764Z,102206.83
2019-02-05T07:35:21.302Z,102206.83
2019-02-05T07:37:50.016Z,102215.24
2019-02-05T07:40:20.921Z,102215.24
2019-02-05T07:42:49.521Z,102211.88
2019-02-05T07:45:20.238Z,102215.64
2019-02-05T07:47:48.939Z,102215.64
2019-02-05T07:50:20.323Z,102214.95
2019-02-05T07:52:48.788Z,102220.67
2019-02-05T07:55:17.295Z,102214.38
2019-02-05T07:57:46.218Z,102221.27
2019-02-05T08:00:23.709Z,102221.79
2019-02-05T08:02:52.239Z,102214.49
2019-02-05T08:05:32.432Z,102209.73
2019-02-05T08:08:01.842Z,102221.58
2019-02-05T08:10:30.455Z,102222.98
2019-02-05T08:12:59.026Z,102232.56
2019-02-05T08:15:29.645Z,102234.44
2019-02-05T08:17:58.117Z,102231.30
2019-02-05T08:20:26.697Z,102231.30
2019-02-05T08:22:55.163Z,102240.48
2019-02-05T08:25:23.633Z,102238.80
2019-02-05T08:27:53.105Z,102240.87
2019-02-05T08:30:36.689Z,102240.87
2019-02-05T08:33:05.578Z,102247.99
2019-02-05T08:35:34.192Z,102249.58
2019-02-05T08:38:02.725Z,102252.34
2019-02-05T08:40:31.260Z,102243.26
2019-02-05T08:42:59.907Z,102244.73
2019-02-05T08:45:36.663Z,102247.89
2019-02-05T08:48:07.281Z,102248.89
2019-02-05T08:50:36.110Z,102252.45
2019-02-05T08:53:04.662Z,102252.45
2019-02-05T08:55:33.128Z,102250.48
2019-02-05T08:58:07.802Z,102253.23
2019-02-05T09:00:38.838Z,102261.13
2019-02-05T09:03:09.452Z,102258.19
2019-02-05T09:05:37.989Z,102256.22
2019-02-05T09:08:06.575Z,102258.98
2019-02-05T09:10:36.791Z,102257.00
2019-02-05T09:13:05.942Z,102267.27
2019-02-05T09:15:34.452Z,102264.30
2019-02-05T09:18:02.994Z,102258.88
2019-02-05T09:20:31.456Z,102258.17
2019-02-05T09:23:00.048Z,102261.81
2019-02-05T09:25:28.517Z,102263.21
2019-02-05T09:27:56.975Z,102263.00
2019-02-05T09:30:28.781Z,102268.36
2019-02-05T09:32:59.577Z,102273.58
2019-02-05T09:35:28.116Z,102270.23
2019-02-05T09:37:57.915Z,102269.43
2019-02-05T09:40:29.021Z,102279.02
2019-02-05T09:42:57.731Z,102286.44
2019-02-05T09:45:27.350Z,102285.62
2019-02-05T09:47:56.099Z,102292.64
2019-02-05T09:50:24.599Z,102293.45
2019-02-05T09:52:53.073Z,102293.93
2019-02-05T09:55:22.005Z,102301.64
2019-02-05T09:57:50.482Z,102305.68
2019-02-05T10:00:24.932Z,102300.25
2019-02-05T10:02:53.877Z,102302.53
2019-02-05T10:05:27.085Z,102313.40
2019-02-05T10:07:55.578Z,102298.09
2019-02-05T10:10:24.239Z,102309.03
2019-02-05T10:12:52.845Z,102308.27
2019-02-05T10:15:27.577Z,102311.83
2019-02-05T10:17:56.123Z,102309.25
2019-02-05T10:20:25.134Z,102307.97
2019-02-05T10:22:55.391Z,102309.25
2019-02-05T10:25:23.923Z,102307.16
2019-02-05T10:27:52.562Z,102309.44
2019-02-05T10:30:23.639Z,102302.79
2019-02-05T10:32:52.635Z,102309.11
2019-02-05T10:35:21.540Z,102304.66
2019-02-05T10:37:50.280Z,102301.57
2019-02-05T10:40:19.241Z,102301.45
2019-02-05T10:42:47.769Z,102299.88
2019-02-05T10:45:22.618Z,102295.02
2019-02-05T10:47:51.154Z,102300.34
2019-02-05T10:50:20.703Z,102297.13
2019-02-05T10:52:49.387Z,102301.91
2019-02-05T10:55:20.160Z,102295.38
2019-02-05T10:57:50.932Z,102293.20
2019-02-05T11:00:25.994Z,102297.54
2019-02-05T11:02:55.105Z,102298.34
2019-02-05T11:05:26.495Z,102300.92
2019-02-05T11:07:55.083Z,102304.37
2019-02-05T11:10:23.621Z,102299.93
2019-02-05T11:12:52.164Z,102293.02
2019-02-05T11:15:26.205Z,102301.04
2019-02-05T11:17:54.744Z,102304.39
2019-02-05T11:20:25.148Z,102301.23
2019-02-05T11:22:53.747Z,102300.64
2019-02-05T11:25:22.392Z,102301.45
2019-02-05T11:27:50.870Z,102302.23
2019-02-05T11:30:31.585Z,102291.86
2019-02-05T11:33:00.046Z,102302.55
2019-02-05T11:35:29.233Z,102302.86
2019-02-05T11:37:57.743Z,102299.70
2019-02-05T11:40:34.299Z,102293.16
2019-02-05T11:43:02.813Z,102297.13
2019-02-05T11:45:31.629Z,102297.41
2019-02-05T11:48:01.457Z,102291.64
2019-02-05T11:50:30.056Z,102304.20
2019-02-05T11:52:58.515Z,102295.31
2019-02-05T11:55:34.035Z,102294.09
2019-02-05T11:58:02.507Z,102294.68
2019-02-05T12:00:38.350Z,102295.97
2019-02-05T12:03:11.296Z,102295.19
2019-02-05T12:05:40.111Z,102297.06
2019-02-05T12:08:08.647Z,102286.65
2019-02-05T12:10:37.145Z,102286.59
2019-02-05T12:13:05.754Z,102294.30
2019-02-05T12:15:34.240Z,102293.77
2019-02-05T12:18:02.741Z,102289.42
2019-02-05T12:20:31.199Z,102288.71
2019-02-05T12:23:00.144Z,102287.77
2019-02-05T12:25:28.658Z,102296.59
2019-02-05T12:27:57.199Z,102288.93
2019-02-05T12:30:45.032Z,102283.38
2019-02-05T12:33:07.604Z,102284.08
2019-02-05T12:35:36.142Z,102287.47
2019-02-05T12:38:06.226Z,102282.32
2019-02-05T12:40:35.064Z,102277.64
2019-02-05T12:43:03.684Z,102286.19
2019-02-05T12:45:35.004Z,102281.84
2019-02-05T12:48:03.609Z,102285.00
2019-02-05T12:50:37.264Z,102283.89
2019-02-05T12:53:06.301Z,102280.50
2019-02-05T12:55:34.777Z,102279.89
2019-02-05T12:58:03.310Z,102279.02
2019-02-05T13:00:40.536Z,102287.21
2019-02-05T13:03:09.940Z,102286.73
2019-02-05T13:05:39.044Z,102278.43
2019-02-05T13:08:07.629Z,102279.03
2019-02-05T13:10:47.231Z,102279.34
2019-02-05T13:13:18.183Z,102282.73
2019-02-05T13:15:47.616Z,102283.61
2019-02-05T13:18:16.083Z,102279.27
2019-02-05T13:20:44.737Z,102286.08
2019-02-05T13:23:13.365Z,102288.18
2019-02-05T13:25:42.711Z,102289.88
2019-02-05T13:28:12.158Z,102297.49
2019-02-05T13:30:40.784Z,102295.02
2019-02-05T13:33:10.799Z,102294.79
2019-02-05T13:35:39.382Z,102288.93
2019-02-05T13:38:07.917Z,102285.95
2019-02-05T13:40:37.184Z,102285.34
2019-02-05T13:43:06.484Z,102290.09
2019-02-05T13:45:37.897Z,102291.89
2019-02-05T13:48:07.111Z,102297.92
2019-02-05T13:50:35.790Z,102293.55
2019-02-05T13:53:04.904Z,102297.81
2019-02-05T13:55:38.821Z,102297.23
2019-02-05T13:58:07.551Z,102298.83
2019-02-05T14:00:44.785Z,102300.34
2019-02-05T14:03:13.359Z,102298.78
2019-02-05T14:05:41.893Z,102302.77
2019-02-05T14:08:10.441Z,102295.98
2019-02-05T14:10:44.006Z,102302.61
2019-02-05T14:13:12.541Z,102314.83
2019-02-05T14:15:43.738Z,102308.28
2019-02-05T14:18:12.538Z,102302.73
2019-02-05T14:20:41.081Z,102294.02
2019-02-05T14:23:09.539Z,102301.16
2019-02-05T14:25:38.042Z,102298.18
2019-02-05T14:28:06.673Z,102303.73
2019-02-05T14:30:37.674Z,102314.13
2019-02-05T14:33:06.690Z,102304.62
2019-02-05T14:35:35.225Z,102311.97
2019-02-05T14:38:04.263Z,102311.05
2019-02-05T14:40:32.759Z,102297.30
2019-02-05T14:43:01.563Z,102308.58
2019-02-05T14:45:30.030Z,102304.42
2019-02-05T14:47:58.987Z,102299.98
2019-02-05T14:50:38.955Z,102313.25
2019-02-05T14:53:08.513Z,102307.11
2019-02-05T14:55:37.050Z,102310.98
2019-02-05T14:58:07.766Z,102319.88
2019-02-05T15:00:37.270Z,102317.70
2019-02-05T15:03:10.912Z,102318.52
2019-02-05T15:05:40.165Z,102322.27
2019-02-05T15:08:09.437Z,102322.27
2019-02-05T15:10:37.900Z,102322.56
2019-02-05T15:13:06.823Z,102329.41
2019-02-05T15:15:35.664Z,102330.11
2019-02-05T15:18:05.474Z,102325.77
2019-02-05T15:20:39.917Z,102333.48
2019-02-05T15:23:08.572Z,102336.84
2019-02-05T15:25:37.106Z,102337.64
2019-02-05T15:28:05.812Z,102338.05
2019-02-05T15:30:36.554Z,102331.80
2019-02-05T15:33:08.012Z,102334.67
2019-02-05T15:35:37.022Z,102331.52
2019-02-05T15:38:05.682Z,102327.95
2019-02-05T15:40:34.272Z,102323.91
2019-02-05T15:43:03.106Z,102327.88
2019-02-05T15:45:31.932Z,102329.87
2019-02-05T15:48:00.395Z,102326.23
2019-02-05T15:50:28.873Z,102333.55
2019-02-05T15:52:57.374Z,102331.48
2019-02-05T15:55:25.907Z,102334.64
2019-02-05T15:57:54.378Z,102322.41
2019-02-05T16:00:24.671Z,102331.98
2019-02-05T16:02:53.203Z,102328.75
2019-02-05T16:05:21.677Z,102334.58
2019-02-05T16:07:50.260Z,102328.45
2019-02-05T16:10:25.702Z,102336.45
2019-02-05T16:12:54.555Z,102344.56
2019-02-05T16:15:23.026Z,102345.93
2019-02-05T16:17:51.496Z,102351.47
2019-02-05T16:20:21.350Z,102348.91
2019-02-05T16:22:50.855Z,102349.70
2019-02-05T16:25:19.392Z,102354.84
2019-02-05T16:27:47.893Z,102350.08
2019-02-05T16:30:22.766Z,102346.62
2019-02-05T16:32:51.224Z,102356.50
2019-02-05T16:35:19.719Z,102342.36
2019-02-05T16:37:48.326Z,102349.59
2019-02-05T16:40:19.544Z,102354.33
2019-02-05T16:42:48.462Z,102360.76
2019-02-05T16:45:19.630Z,102354.05
2019-02-05T16:47:48.503Z,102356.61
2019-02-05T16:50:28.964Z,102352.36
2019-02-05T16:52:57.553Z,102355.33
2019-02-05T16:55:25.996Z,102365.20
2019-02-05T16:57:54.755Z,102349.02
2019-02-05T17:00:33.846Z,102360.95
2019-02-05T17:03:02.522Z,102364.92
2019-02-05T17:05:33.372Z,102373.03
2019-02-05T17:08:02.034Z,102370.86
2019-02-05T17:10:30.828Z,102371.75
2019-02-05T17:12:59.290Z,102377.29
2019-02-05T17:15:27.760Z,102379.34
2019-02-05T17:17:56.420Z,102385.00
2019-02-05T17:20:26.924Z,102381.52
2019-02-05T17:22:55.551Z,102377.18
2019-02-05T17:25:26.007Z,102386.17
2019-02-05T17:27:55.302Z,102387.86
2019-02-05T17:30:26.213Z,102388.55
2019-02-05T17:32:54.740Z,102383.41
2019-02-05T17:35:23.276Z,102373.53
2019-02-05T17:37:51.985Z,102382.90
2019-02-05T17:40:22.877Z,102382.42
2019-02-05T17:42:52.076Z,102380.25
2019-02-05T17:45:32.039Z,102381.94
2019-02-05T17:48:02.272Z,102371.75
2019-02-05T17:50:31.198Z,102380.83
2019-02-05T17:52:59.976Z,102387.66
2019-02-05T17:55:28.515Z,102391.91
2019-02-05T17:57:56.972Z,102390.11
2019-02-05T18:00:36.943Z,102392.60
2019-02-05T18:03:06.176Z,102384.89
2019-02-05T18:05:35.051Z,102389.03
2019-02-05T18:08:03.588Z,102386.06
2019-02-05T18:10:32.057Z,102379.66
2019-02-05T18:13:00.528Z,102390.72
2019-02-05T18:15:35.227Z,102391.12
2019-02-05T18:18:03.667Z,102391.12
2019-02-05T18:20:33.014Z,102384.11
2019-02-05T18:23:01.529Z,102388.44
2019-02-05T18:25:30.211Z,102390.20
2019-02-05T18:27:58.742Z,102395.34
2019-02-05T18:30:34.797Z,102396.63
2019-02-05T18:33:05.844Z,102396.55
2019-02-05T18:35:33.870Z,102399.30
2019-02-05T18:38:04.627Z,102399.30
2019-02-05T18:40:33.138Z,102405.83
2019-02-05T18:43:01.717Z,102403.27
2019-02-05T18:45:30.404Z,102405.23
2019-02-05T18:47:58.839Z,102411.55
2019-02-05T18:50:28.922Z,102406.41
2019-02-05T18:53:00.372Z,102412.43
2019-02-05T18:55:34.980Z,102415.52
2019-02-05T18:58:09.464Z,102421.94
2019-02-05T19:00:38.972Z,102417.69
2019-02-05T19:03:14.988Z,102413.71
2019-02-05T19:05:38.019Z,102419.37
2019-02-05T19:08:06.785Z,102417.20
2019-02-05T19:10:35.326Z,102418.48
2019-02-05T19:13:04.241Z,102419.37
2019-02-05T19:15:35.544Z,102419.66
2019-02-05T19:18:05.409Z,102425.28
2019-02-05T19:20:33.910Z,102421.42
2019-02-05T19:23:03.344Z,102420.53
2019-02-05T19:25:36.317Z,102430.41
2019-02-05T19:28:05.113Z,102425.08
2019-02-05T19:30:37.925Z,102428.25
2019-02-05T19:33:06.421Z,102429.05
2019-02-05T19:35:34.877Z,102434.95
2019-02-05T19:38:03.444Z,102434.36
2019-02-05T19:40:31.900Z,102427.25
2019-02-05T19:43:00.367Z,102433.87
2019-02-05T19:45:30.592Z,102432.47
2019-02-05T19:48:01.061Z,102432.56
2019-02-05T19:50:29.624Z,102437.81
2019-02-05T19:52:58.182Z,102447.09
2019-02-05T19:55:26.856Z,102445.61
2019-02-05T19:57:55.603Z,102440.27
2019-02-05T20:00:24.197Z,102441.72
2019-02-05T20:02:55.468Z,102441.72
2019-02-05T20:05:22.840Z,102440.64
2019-02-05T20:07:53.260Z,102451.59
2019-02-05T20:10:21.723Z,102443.69
2019-02-05T20:12:50.213Z,102443.69
2019-02-05T20:15:19.827Z,102446.14
2019-02-05T20:17:48.531Z,102450.28
2019-02-05T20:20:22.406Z,102467.37
2019-02-05T20:22:51.401Z,102467.37
2019-02-05T20:25:20.343Z,102461.75
2019-02-05T20:27:48.848Z,102460.14
2019-02-05T20:30:19.173Z,102460.14
2019-02-05T20:32:47.648Z,102463.11
2019-02-05T20:35:16.279Z,102448.15
2019-02-05T20:37:44.782Z,102448.15
2019-02-05T20:40:19.066Z,102463.39
2019-02-05T20:42:47.532Z,102458.81
2019-02-05T20:45:16.118Z,102465.12
2019-02-05T20:47:44.698Z,102471.73
2019-02-05T20:50:20.945Z,102471.73
2019-02-05T20:52:49.408Z,102476.94
2019-02-05T20:55:22.511Z,102476.94
2019-02-05T20:57:51.449Z,102480.30
2019-02-05T21:00:28.633Z,102484.77
2019-02-05T21:02:57.201Z,102475.33
2019-02-05T21:05:25.679Z,102482.88
2019-02-05T21:07:54.148Z,102484.36
2019-02-05T21:10:25.458Z,102484.36
2019-02-05T21:12:53.978Z,102492.34
2019-02-05T21:15:22.804Z,102493.83
2019-02-05T21:17:51.425Z,102493.83
2019-02-05T21:20:30.623Z,102489.89
2019-02-05T21:22:57.631Z,102491.66
2019-02-05T21:25:27.813Z,102507.00
2019-02-05T21:27:58.193Z,102504.31
2019-02-05T21:30:26.663Z,102500.45
2019-02-05T21:32:55.190Z,102503.35
2019-02-05T21:35:23.747Z,102507.60
2019-02-05T21:37:52.248Z,102507.60
2019-02-05T21:40:23.532Z,102495.33
2019-02-05T21:42:51.999Z,102500.45
2019-02-05T21:45:32.325Z,102500.45
2019-02-05T21:48:00.865Z,102502.27
2019-02-05T21:50:29.336Z,102512.73
2019-02-05T21:52:58.206Z,102509.77
2019-02-05T21:55:27.311Z,102509.77
2019-02-05T21:57:56.162Z,102503.55
2019-02-05T22:00:34.758Z,102502.14
2019-02-05T22:03:03.386Z,102502.66
2019-02-05T22:05:32.891Z,102508.47
2019-02-05T22:08:01.867Z,102506.25
2019-02-05T22:10:30.489Z,102504.52
2019-02-05T22:12:59.026Z,102504.52
2019-02-05T22:15:27.908Z,102503.22
2019-02-05T22:17:56.384Z,102499.52
2019-02-05T22:20:28.025Z,102499.52
2019-02-05T22:22:57.139Z,102501.27
2019-02-05T22:25:30.719Z,102501.27
2019-02-05T22:27:59.182Z,102500.66
2019-02-05T22:30:36.198Z,102512.20
2019-02-05T22:33:07.473Z,102505.39
2019-02-05T22:35:36.001Z,102500.66
2019-02-05T22:38:04.953Z,102502.44
2019-02-05T22:40:33.428Z,102503.23
2019-02-05T22:43:02.366Z,102503.23
2019-02-05T22:45:31.963Z,102505.80
2019-02-05T22:48:00.568Z,102506.89
2019-02-05T22:50:31.964Z,102509.98
2019-02-05T22:53:01.406Z,102513.55
2019-02-05T22:55:29.943Z,102512.27
2019-02-05T22:57:58.413Z,102523.56
2019-02-05T23:00:34.730Z,102520.78
2019-02-05T23:03:03.389Z,102523.77
2019-02-05T23:06:11.116Z,102523.77
2019-02-05T23:08:39.761Z,102530.70
2019-02-05T23:11:40.127Z,102538.34
2019-02-05T23:14:08.666Z,102538.34
2019-02-05T23:16:37.195Z,102530.92
2019-02-05T23:19:05.765Z,102530.92
2019-02-05T23:21:34.303Z,102533.81
2019-02-05T23:24:02.781Z,102533.54
2019-02-05T23:26:31.300Z,102533.54
2019-02-05T23:28:59.773Z,102535.59
2019-02-05T23:31:28.240Z,102540.45
2019-02-05T23:33:56.742Z,102549.91
2019-02-05T23:36:25.201Z,102549.91
2019-02-05T23:38:53.935Z,102546.59
2019-02-05T23:41:22.444Z,102555.66
2019-02-05T23:43:50.915Z,102552.72
2019-02-05T23:46:19.383Z,102556.58
2019-02-05T23:48:47.885Z,102563.76
2019-02-05T23:51:16.365Z,102558.14
2019-02-05T23:53:44.836Z,102564.56
2019-02-05T23:56:25.401Z,102565.11
2019-02-05T23:58:45.384Z,102563.15
